sensor_id;sensor_type;location;lat;lon;timestamp;temperature;humidity
18454;DHT22;9356;52.202;20.950;2023-04-25T00:00:46;14.30;96.70
18454;DHT22;9356;52.202;20.950;2023-04-25T00:01:53;14.30;97.00
18454;DHT22;9356;52.202;20.950;2023-04-25T00:02:56;14.30;97.00
18454;DHT22;9356;52.202;20.950;2023-04-25T00:04:05;14.30;97.00
18454;DHT22;9356;52.202;20.950;2023-04-25T00:05:09;14.30;97.10
18454;DHT22;9356;52.202;20.950;2023-04-25T00:06:14;14.40;97.10
18454;DHT22;9356;52.202;20.950;2023-04-25T00:07:18;17.00;97.90
18454;DHT22;9356;52.202;20.950;2023-04-25T00:08:22;14.40;97.10
18454;DHT22;9356;52.202;20.950;2023-04-25T00:09:27;14.40;97.20
18454;DHT22;9356;52.202;20.950;2023-04-25T00:10:32;14.40;97.30
18454;DHT22;9356;52.202;20.950;2023-04-25T00:11:34;14.40;97.40
18454;DHT22;9356;52.202;20.950;2023-04-25T00:12:39;14.40;97.40
18454;DHT22;9356;52.202;20.950;2023-04-25T00:13:46;14.40;97.40
18454;DHT22;9356;52.202;20.950;2023-04-25T00:14:54;14.40;97.50
18454;DHT22;9356;52.202;20.950;2023-04-25T00:16:01;14.40;97.40
18454;DHT22;9356;52.202;20.950;2023-04-25T00:17:06;14.40;97.50
18454;DHT22;9356;52.202;20.950;2023-04-25T00:18:10;14.40;97.70
18454;DHT22;9356;52.202;20.950;2023-04-25T00:19:14;14.40;97.60
18454;DHT22;9356;52.202;20.950;2023-04-25T00:20:18;14.40;97.70
18454;DHT22;9356;52.202;20.950;2023-04-25T00:21:22;14.40;97.90
18454;DHT22;9356;52.202;20.950;2023-04-25T00:22:28;14.40;98.00
18454;DHT22;9356;52.202;20.950;2023-04-25T00:23:33;14.30;98.00
18454;DHT22;9356;52.202;20.950;2023-04-25T00:24:38;14.30;98.10
18454;DHT22;9356;52.202;20.950;2023-04-25T00:25:42;14.30;98.10
18454;DHT22;9356;52.202;20.950;2023-04-25T00:26:45;14.30;98.20
18454;DHT22;9356;52.202;20.950;2023-04-25T00:27:50;14.30;98.30
18454;DHT22;9356;52.202;20.950;2023-04-25T00:28:54;14.30;98.30
18454;DHT22;9356;52.202;20.950;2023-04-25T00:30:00;14.30;98.30
18454;DHT22;9356;52.202;20.950;2023-04-25T00:31:04;14.30;98.40
18454;DHT22;9356;52.202;20.950;2023-04-25T00:32:08;14.30;98.40
18454;DHT22;9356;52.202;20.950;2023-04-25T00:33:12;14.30;98.50
18454;DHT22;9356;52.202;20.950;2023-04-25T00:34:18;14.20;98.70
18454;DHT22;9356;52.202;20.950;2023-04-25T00:35:22;13.90;98.70
18454;DHT22;9356;52.202;20.950;2023-04-25T00:36:25;13.80;98.90
18454;DHT22;9356;52.202;20.950;2023-04-25T00:37:30;14.20;99.20
18454;DHT22;9356;52.202;20.950;2023-04-25T00:38:33;14.10;99.30
18454;DHT22;9356;52.202;20.950;2023-04-25T00:39:37;14.10;99.50
18454;DHT22;9356;52.202;20.950;2023-04-25T00:40:41;14.10;99.60
18454;DHT22;9356;52.202;20.950;2023-04-25T00:41:46;14.10;99.70
18454;DHT22;9356;52.202;20.950;2023-04-25T00:42:52;14.20;99.70
18454;DHT22;9356;52.202;20.950;2023-04-25T00:43:58;14.20;99.70
18454;DHT22;9356;52.202;20.950;2023-04-25T00:45:05;14.10;99.60
18454;DHT22;9356;52.202;20.950;2023-04-25T00:46:10;14.20;99.80
18454;DHT22;9356;52.202;20.950;2023-04-25T00:47:13;14.20;99.80
18454;DHT22;9356;52.202;20.950;2023-04-25T00:48:19;14.20;99.90
18454;DHT22;9356;52.202;20.950;2023-04-25T00:49:24;14.20;99.70
18454;DHT22;9356;52.202;20.950;2023-04-25T00:50:28;13.00;99.50
18454;DHT22;9356;52.202;20.950;2023-04-25T00:51:33;14.20;99.90
18454;DHT22;9356;52.202;20.950;2023-04-25T00:52:38;14.20;99.90
18454;DHT22;9356;52.202;20.950;2023-04-25T00:53:44;14.20;99.90
18454;DHT22;9356;52.202;20.950;2023-04-25T00:54:48;14.10;99.90
18454;DHT22;9356;52.202;20.950;2023-04-25T00:55:52;14.10;99.90
18454;DHT22;9356;52.202;20.950;2023-04-25T00:56:57;14.10;99.90
18454;DHT22;9356;52.202;20.950;2023-04-25T00:58:01;14.00;99.90
18454;DHT22;9356;52.202;20.950;2023-04-25T00:59:05;14.20;99.90
18454;DHT22;9356;52.202;20.950;2023-04-25T01:00:11;13.90;99.90
18454;DHT22;9356;52.202;20.950;2023-04-25T01:01:16;13.90;99.90
18454;DHT22;9356;52.202;20.950;2023-04-25T01:02:20;13.90;99.90
18454;DHT22;9356;52.202;20.950;2023-04-25T01:03:25;13.80;99.90
18454;DHT22;9356;52.202;20.950;2023-04-25T01:04:31;13.90;99.90
18454;DHT22;9356;52.202;20.950;2023-04-25T01:05:36;13.90;99.90
18454;DHT22;9356;52.202;20.950;2023-04-25T01:06:40;13.90;99.90
18454;DHT22;9356;52.202;20.950;2023-04-25T01:07:44;15.30;99.90
18454;DHT22;9356;52.202;20.950;2023-04-25T01:08:49;13.90;99.90
18454;DHT22;9356;52.202;20.950;2023-04-25T01:09:54;13.90;99.90
18454;DHT22;9356;52.202;20.950;2023-04-25T01:10:57;13.90;99.90
18454;DHT22;9356;52.202;20.950;2023-04-25T01:12:04;13.80;99.90
18454;DHT22;9356;52.202;20.950;2023-04-25T01:13:08;13.90;99.90
18454;DHT22;9356;52.202;20.950;2023-04-25T01:14:12;13.80;99.90
18454;DHT22;9356;52.202;20.950;2023-04-25T01:15:17;13.80;99.90
18454;DHT22;9356;52.202;20.950;2023-04-25T01:16:21;13.80;99.90
18454;DHT22;9356;52.202;20.950;2023-04-25T01:17:26;13.80;99.90
18454;DHT22;9356;52.202;20.950;2023-04-25T01:18:32;13.90;99.90
18454;DHT22;9356;52.202;20.950;2023-04-25T01:19:36;13.80;99.90
18454;DHT22;9356;52.202;20.950;2023-04-25T01:20:44;13.80;99.90
18454;DHT22;9356;52.202;20.950;2023-04-25T01:21:51;14.80;99.90
18454;DHT22;9356;52.202;20.950;2023-04-25T01:22:56;13.80;99.90
18454;DHT22;9356;52.202;20.950;2023-04-25T01:24:01;13.80;99.90
18454;DHT22;9356;52.202;20.950;2023-04-25T01:25:07;13.90;99.90
18454;DHT22;9356;52.202;20.950;2023-04-25T01:26:12;13.80;99.90
18454;DHT22;9356;52.202;20.950;2023-04-25T01:27:17;13.90;99.90
18454;DHT22;9356;52.202;20.950;2023-04-25T01:28:21;13.80;99.90
18454;DHT22;9356;52.202;20.950;2023-04-25T01:29:26;13.80;99.90
18454;DHT22;9356;52.202;20.950;2023-04-25T01:30:32;13.80;99.90
18454;DHT22;9356;52.202;20.950;2023-04-25T01:31:37;13.80;99.90
18454;DHT22;9356;52.202;20.950;2023-04-25T01:32:41;13.70;99.90
18454;DHT22;9356;52.202;20.950;2023-04-25T01:33:48;13.70;99.90
18454;DHT22;9356;52.202;20.950;2023-04-25T01:34:52;13.70;99.90
18454;DHT22;9356;52.202;20.950;2023-04-25T01:35:57;13.70;99.90
18454;DHT22;9356;52.202;20.950;2023-04-25T01:37:02;13.70;99.90
18454;DHT22;9356;52.202;20.950;2023-04-25T01:38:06;13.70;99.90
18454;DHT22;9356;52.202;20.950;2023-04-25T01:39:09;13.70;99.90
18454;DHT22;9356;52.202;20.950;2023-04-25T01:40:14;13.70;99.90
18454;DHT22;9356;52.202;20.950;2023-04-25T01:41:17;13.70;99.90
18454;DHT22;9356;52.202;20.950;2023-04-25T01:42:22;13.70;99.90
18454;DHT22;9356;52.202;20.950;2023-04-25T01:43:25;13.60;99.90
18454;DHT22;9356;52.202;20.950;2023-04-25T01:44:30;13.60;99.90
18454;DHT22;9356;52.202;20.950;2023-04-25T01:45:33;13.60;99.90
18454;DHT22;9356;52.202;20.950;2023-04-25T01:46:39;13.60;99.90
18454;DHT22;9356;52.202;20.950;2023-04-25T01:47:43;13.60;99.90
18454;DHT22;9356;52.202;20.950;2023-04-25T01:48:52;13.60;99.90
18454;DHT22;9356;52.202;20.950;2023-04-25T01:49:56;15.80;99.90
18454;DHT22;9356;52.202;20.950;2023-04-25T01:51:01;13.70;99.90
18454;DHT22;9356;52.202;20.950;2023-04-25T01:52:07;13.70;99.90
18454;DHT22;9356;52.202;20.950;2023-04-25T01:53:13;13.70;99.90
18454;DHT22;9356;52.202;20.950;2023-04-25T01:54:20;13.70;99.90
18454;DHT22;9356;52.202;20.950;2023-04-25T01:55:23;12.60;99.90
18454;DHT22;9356;52.202;20.950;2023-04-25T01:56:37;13.60;99.90
18454;DHT22;9356;52.202;20.950;2023-04-25T01:57:41;13.70;99.90
18454;DHT22;9356;52.202;20.950;2023-04-25T01:58:46;13.60;99.90
18454;DHT22;9356;52.202;20.950;2023-04-25T01:59:59;13.60;99.90
18454;DHT22;9356;52.202;20.950;2023-04-25T02:01:16;13.60;99.90
18454;DHT22;9356;52.202;20.950;2023-04-25T02:02:27;17.00;99.90
18454;DHT22;9356;52.202;20.950;2023-04-25T02:03:33;13.60;99.90
18454;DHT22;9356;52.202;20.950;2023-04-25T02:04:40;12.90;99.90
18454;DHT22;9356;52.202;20.950;2023-04-25T02:05:45;13.60;99.90
18454;DHT22;9356;52.202;20.950;2023-04-25T02:06:49;13.60;99.90
18454;DHT22;9356;52.202;20.950;2023-04-25T02:07:54;13.70;99.90
18454;DHT22;9356;52.202;20.950;2023-04-25T02:09:03;13.60;99.90
18454;DHT22;9356;52.202;20.950;2023-04-25T02:10:09;13.60;99.90
18454;DHT22;9356;52.202;20.950;2023-04-25T02:11:25;13.60;99.90
18454;DHT22;9356;52.202;20.950;2023-04-25T02:12:45;13.60;99.90
18454;DHT22;9356;52.202;20.950;2023-04-25T02:14:01;13.40;99.90
18454;DHT22;9356;52.202;20.950;2023-04-25T02:15:16;13.50;99.90
18454;DHT22;9356;52.202;20.950;2023-04-25T02:16:28;13.50;99.90
18454;DHT22;9356;52.202;20.950;2023-04-25T02:17:36;13.60;99.90
18454;DHT22;9356;52.202;20.950;2023-04-25T02:18:40;13.60;99.90
18454;DHT22;9356;52.202;20.950;2023-04-25T02:19:45;13.60;99.90
18454;DHT22;9356;52.202;20.950;2023-04-25T02:20:48;13.60;99.90
18454;DHT22;9356;52.202;20.950;2023-04-25T02:21:53;13.40;99.90
18454;DHT22;9356;52.202;20.950;2023-04-25T02:22:58;13.60;99.90
18454;DHT22;9356;52.202;20.950;2023-04-25T02:24:07;13.60;99.90
18454;DHT22;9356;52.202;20.950;2023-04-25T02:25:11;13.60;99.90
18454;DHT22;9356;52.202;20.950;2023-04-25T02:26:16;13.50;99.90
18454;DHT22;9356;52.202;20.950;2023-04-25T02:27:19;14.00;99.90
18454;DHT22;9356;52.202;20.950;2023-04-25T02:28:24;13.40;99.90
18454;DHT22;9356;52.202;20.950;2023-04-25T02:29:29;13.40;99.90
18454;DHT22;9356;52.202;20.950;2023-04-25T02:30:33;13.40;99.90
18454;DHT22;9356;52.202;20.950;2023-04-25T02:31:58;13.40;99.90
18454;DHT22;9356;52.202;20.950;2023-04-25T02:33:05;13.40;99.90
18454;DHT22;9356;52.202;20.950;2023-04-25T02:34:11;13.40;99.90
18454;DHT22;9356;52.202;20.950;2023-04-25T02:35:15;13.50;99.90
18454;DHT22;9356;52.202;20.950;2023-04-25T02:36:18;13.40;99.90
18454;DHT22;9356;52.202;20.950;2023-04-25T02:37:24;13.40;99.90
18454;DHT22;9356;52.202;20.950;2023-04-25T02:38:28;13.30;99.90
18454;DHT22;9356;52.202;20.950;2023-04-25T02:39:33;13.30;99.90
18454;DHT22;9356;52.202;20.950;2023-04-25T02:40:37;13.40;99.90
18454;DHT22;9356;52.202;20.950;2023-04-25T02:41:44;13.30;99.90
18454;DHT22;9356;52.202;20.950;2023-04-25T02:42:47;13.30;99.90
18454;DHT22;9356;52.202;20.950;2023-04-25T02:43:53;15.70;99.90
18454;DHT22;9356;52.202;20.950;2023-04-25T02:44:57;13.30;99.90
18454;DHT22;9356;52.202;20.950;2023-04-25T02:46:01;13.40;99.90
18454;DHT22;9356;52.202;20.950;2023-04-25T02:47:05;13.30;99.90
18454;DHT22;9356;52.202;20.950;2023-04-25T02:48:10;13.40;99.90
18454;DHT22;9356;52.202;20.950;2023-04-25T02:49:14;11.00;99.90
18454;DHT22;9356;52.202;20.950;2023-04-25T02:50:19;13.30;99.90
18454;DHT22;9356;52.202;20.950;2023-04-25T02:51:22;13.30;99.90
18454;DHT22;9356;52.202;20.950;2023-04-25T02:52:27;13.30;99.90
18454;DHT22;9356;52.202;20.950;2023-04-25T02:53:40;13.30;99.90
18454;DHT22;9356;52.202;20.950;2023-04-25T02:54:44;13.30;99.90
18454;DHT22;9356;52.202;20.950;2023-04-25T02:55:50;13.40;99.90
18454;DHT22;9356;52.202;20.950;2023-04-25T02:56:58;13.30;99.90
18454;DHT22;9356;52.202;20.950;2023-04-25T02:58:09;13.30;99.90
18454;DHT22;9356;52.202;20.950;2023-04-25T02:59:20;13.20;99.90
18454;DHT22;9356;52.202;20.950;2023-04-25T03:00:23;13.30;99.90
18454;DHT22;9356;52.202;20.950;2023-04-25T03:01:27;13.30;99.90
18454;DHT22;9356;52.202;20.950;2023-04-25T03:02:30;13.20;99.90
18454;DHT22;9356;52.202;20.950;2023-04-25T03:03:35;13.30;99.90
18454;DHT22;9356;52.202;20.950;2023-04-25T03:04:38;13.30;99.90
18454;DHT22;9356;52.202;20.950;2023-04-25T03:05:43;13.30;99.90
18454;DHT22;9356;52.202;20.950;2023-04-25T03:06:47;14.00;99.90
18454;DHT22;9356;52.202;20.950;2023-04-25T03:07:55;13.30;99.90
18454;DHT22;9356;52.202;20.950;2023-04-25T03:09:00;13.30;99.90
18454;DHT22;9356;52.202;20.950;2023-04-25T03:10:06;13.20;99.90
18454;DHT22;9356;52.202;20.950;2023-04-25T03:11:43;14.20;99.90
18454;DHT22;9356;52.202;20.950;2023-04-25T03:12:47;13.30;99.90
18454;DHT22;9356;52.202;20.950;2023-04-25T03:13:50;13.20;99.90
18454;DHT22;9356;52.202;20.950;2023-04-25T03:14:55;13.20;99.90
18454;DHT22;9356;52.202;20.950;2023-04-25T03:15:58;13.20;99.90
18454;DHT22;9356;52.202;20.950;2023-04-25T03:17:05;13.20;99.90
18454;DHT22;9356;52.202;20.950;2023-04-25T03:18:10;13.20;99.90
18454;DHT22;9356;52.202;20.950;2023-04-25T03:19:14;13.80;99.90
18454;DHT22;9356;52.202;20.950;2023-04-25T03:20:21;13.20;99.90
18454;DHT22;9356;52.202;20.950;2023-04-25T03:21:25;13.20;99.90
18454;DHT22;9356;52.202;20.950;2023-04-25T03:22:29;13.20;99.90
18454;DHT22;9356;52.202;20.950;2023-04-25T03:23:33;14.50;99.90
18454;DHT22;9356;52.202;20.950;2023-04-25T03:24:38;13.20;99.90
18454;DHT22;9356;52.202;20.950;2023-04-25T03:25:43;13.10;99.90
18454;DHT22;9356;52.202;20.950;2023-04-25T03:26:46;13.10;99.90
18454;DHT22;9356;52.202;20.950;2023-04-25T03:27:53;13.20;99.90
18454;DHT22;9356;52.202;20.950;2023-04-25T03:28:57;13.10;99.90
18454;DHT22;9356;52.202;20.950;2023-04-25T03:30:01;13.10;99.90
18454;DHT22;9356;52.202;20.950;2023-04-25T03:31:06;13.10;99.90
18454;DHT22;9356;52.202;20.950;2023-04-25T03:32:10;12.20;99.90
18454;DHT22;9356;52.202;20.950;2023-04-25T03:33:16;13.00;99.90
18454;DHT22;9356;52.202;20.950;2023-04-25T03:34:19;13.10;99.90
18454;DHT22;9356;52.202;20.950;2023-04-25T03:35:24;13.00;99.90
18454;DHT22;9356;52.202;20.950;2023-04-25T03:36:28;13.10;99.90
18454;DHT22;9356;52.202;20.950;2023-04-25T03:37:34;13.10;99.90
18454;DHT22;9356;52.202;20.950;2023-04-25T03:38:40;13.10;99.90
18454;DHT22;9356;52.202;20.950;2023-04-25T03:39:47;13.10;99.90
18454;DHT22;9356;52.202;20.950;2023-04-25T03:40:52;13.00;99.90
18454;DHT22;9356;52.202;20.950;2023-04-25T03:42:16;13.10;99.90
18454;DHT22;9356;52.202;20.950;2023-04-25T03:43:21;13.10;99.90
18454;DHT22;9356;52.202;20.950;2023-04-25T03:44:31;13.10;99.90
18454;DHT22;9356;52.202;20.950;2023-04-25T03:45:36;13.10;99.90
18454;DHT22;9356;52.202;20.950;2023-04-25T03:46:39;15.00;99.90
18454;DHT22;9356;52.202;20.950;2023-04-25T03:47:43;13.20;99.90
18454;DHT22;9356;52.202;20.950;2023-04-25T03:48:47;13.20;99.90
18454;DHT22;9356;52.202;20.950;2023-04-25T03:49:59;13.10;99.90
18454;DHT22;9356;52.202;20.950;2023-04-25T03:51:05;13.30;99.90
18454;DHT22;9356;52.202;20.950;2023-04-25T03:52:12;11.40;99.90
18454;DHT22;9356;52.202;20.950;2023-04-25T03:53:19;13.30;99.90
18454;DHT22;9356;52.202;20.950;2023-04-25T03:54:56;13.20;99.90
18454;DHT22;9356;52.202;20.950;2023-04-25T03:56:06;13.30;99.90
18454;DHT22;9356;52.202;20.950;2023-04-25T03:57:11;13.40;99.90
18454;DHT22;9356;52.202;20.950;2023-04-25T03:58:18;13.40;99.90
18454;DHT22;9356;52.202;20.950;2023-04-25T03:59:21;13.30;99.90
18454;DHT22;9356;52.202;20.950;2023-04-25T04:00:26;13.40;99.90
18454;DHT22;9356;52.202;20.950;2023-04-25T04:01:39;13.40;99.90
18454;DHT22;9356;52.202;20.950;2023-04-25T04:02:44;13.30;99.90
18454;DHT22;9356;52.202;20.950;2023-04-25T04:03:48;13.30;99.90
18454;DHT22;9356;52.202;20.950;2023-04-25T04:04:52;13.30;99.90
18454;DHT22;9356;52.202;20.950;2023-04-25T04:05:56;13.30;99.90
18454;DHT22;9356;52.202;20.950;2023-04-25T04:07:02;13.30;99.90
18454;DHT22;9356;52.202;20.950;2023-04-25T04:08:10;13.40;99.90
18454;DHT22;9356;52.202;20.950;2023-04-25T04:09:14;13.30;99.90
18454;DHT22;9356;52.202;20.950;2023-04-25T04:10:21;13.20;99.90
18454;DHT22;9356;52.202;20.950;2023-04-25T04:11:25;12.60;99.90
18454;DHT22;9356;52.202;20.950;2023-04-25T04:12:28;13.10;99.90
18454;DHT22;9356;52.202;20.950;2023-04-25T04:13:34;13.00;99.90
18454;DHT22;9356;52.202;20.950;2023-04-25T04:14:37;13.00;99.90
18454;DHT22;9356;52.202;20.950;2023-04-25T04:15:42;13.00;99.90
18454;DHT22;9356;52.202;20.950;2023-04-25T04:16:48;13.10;99.90
18454;DHT22;9356;52.202;20.950;2023-04-25T04:17:57;13.10;99.90
18454;DHT22;9356;52.202;20.950;2023-04-25T04:19:05;13.00;99.90
18454;DHT22;9356;52.202;20.950;2023-04-25T04:20:11;10.40;99.90
18454;DHT22;9356;52.202;20.950;2023-04-25T04:21:16;13.10;99.90
18454;DHT22;9356;52.202;20.950;2023-04-25T04:22:19;13.00;99.90
18454;DHT22;9356;52.202;20.950;2023-04-25T04:23:25;13.10;99.90
18454;DHT22;9356;52.202;20.950;2023-04-25T04:24:32;13.10;99.90
18454;DHT22;9356;52.202;20.950;2023-04-25T04:25:42;13.20;99.90
18454;DHT22;9356;52.202;20.950;2023-04-25T04:27:05;13.00;99.90
18454;DHT22;9356;52.202;20.950;2023-04-25T04:28:11;13.00;99.90
18454;DHT22;9356;52.202;20.950;2023-04-25T04:29:46;13.00;99.90
18454;DHT22;9356;52.202;20.950;2023-04-25T04:30:58;13.00;99.90
18454;DHT22;9356;52.202;20.950;2023-04-25T04:32:02;13.10;99.90
18454;DHT22;9356;52.202;20.950;2023-04-25T04:33:08;13.10;99.90
18454;DHT22;9356;52.202;20.950;2023-04-25T04:34:12;13.10;99.90
18454;DHT22;9356;52.202;20.950;2023-04-25T04:35:18;13.00;99.90
18454;DHT22;9356;52.202;20.950;2023-04-25T04:36:21;12.00;99.90
18454;DHT22;9356;52.202;20.950;2023-04-25T04:37:28;13.10;99.90
18454;DHT22;9356;52.202;20.950;2023-04-25T04:38:33;13.10;99.90
18454;DHT22;9356;52.202;20.950;2023-04-25T04:39:39;13.10;99.90
18454;DHT22;9356;52.202;20.950;2023-04-25T04:40:53;13.10;99.90
18454;DHT22;9356;52.202;20.950;2023-04-25T04:42:08;13.10;99.90
18454;DHT22;9356;52.202;20.950;2023-04-25T04:43:24;13.20;99.90
18454;DHT22;9356;52.202;20.950;2023-04-25T04:44:47;13.10;99.90
18454;DHT22;9356;52.202;20.950;2023-04-25T04:46:01;12.90;99.90
18454;DHT22;9356;52.202;20.950;2023-04-25T04:47:26;12.90;99.90
18454;DHT22;9356;52.202;20.950;2023-04-25T04:48:52;13.00;99.90
18454;DHT22;9356;52.202;20.950;2023-04-25T04:50:34;12.90;99.90
18454;DHT22;9356;52.202;20.950;2023-04-25T04:51:53;12.80;99.90
18454;DHT22;9356;52.202;20.950;2023-04-25T04:53:25;12.80;99.90
18454;DHT22;9356;52.202;20.950;2023-04-25T04:54:48;12.80;99.90
18454;DHT22;9356;52.202;20.950;2023-04-25T04:56:23;12.70;99.90
18454;DHT22;9356;52.202;20.950;2023-04-25T04:57:47;12.60;99.90
18454;DHT22;9356;52.202;20.950;2023-04-25T04:59:08;12.50;99.90
18454;DHT22;9356;52.202;20.950;2023-04-25T05:00:19;12.50;99.90
18454;DHT22;9356;52.202;20.950;2023-04-25T05:01:43;12.50;99.90
18454;DHT22;9356;52.202;20.950;2023-04-25T05:03:07;12.60;99.90
18454;DHT22;9356;52.202;20.950;2023-04-25T05:04:29;12.50;99.90
18454;DHT22;9356;52.202;20.950;2023-04-25T05:05:41;12.60;99.90
18454;DHT22;9356;52.202;20.950;2023-04-25T05:07:07;12.80;99.90
18454;DHT22;9356;52.202;20.950;2023-04-25T05:08:25;12.60;99.90
18454;DHT22;9356;52.202;20.950;2023-04-25T05:09:44;12.70;99.90
18454;DHT22;9356;52.202;20.950;2023-04-25T05:10:53;12.70;99.90
18454;DHT22;9356;52.202;20.950;2023-04-25T05:12:27;12.80;99.90
18454;DHT22;9356;52.202;20.950;2023-04-25T05:13:49;12.80;99.90
18454;DHT22;9356;52.202;20.950;2023-04-25T05:15:14;12.80;99.90
18454;DHT22;9356;52.202;20.950;2023-04-25T05:16:27;12.80;99.90
18454;DHT22;9356;52.202;20.950;2023-04-25T05:17:48;12.80;99.90
18454;DHT22;9356;52.202;20.950;2023-04-25T05:19:09;12.90;99.90
18454;DHT22;9356;52.202;20.950;2023-04-25T05:20:21;12.90;99.90
18454;DHT22;9356;52.202;20.950;2023-04-25T05:21:28;12.90;99.90
18454;DHT22;9356;52.202;20.950;2023-04-25T05:23:01;11.40;99.90
18454;DHT22;9356;52.202;20.950;2023-04-25T05:24:25;12.90;99.90
18454;DHT22;9356;52.202;20.950;2023-04-25T05:25:29;12.80;99.90
18454;DHT22;9356;52.202;20.950;2023-04-25T05:26:42;12.80;99.90
18454;DHT22;9356;52.202;20.950;2023-04-25T05:28:21;12.70;99.90
18454;DHT22;9356;52.202;20.950;2023-04-25T05:29:44;12.60;99.90
18454;DHT22;9356;52.202;20.950;2023-04-25T05:30:58;12.60;99.90
18454;DHT22;9356;52.202;20.950;2023-04-25T05:32:05;12.60;99.90
18454;DHT22;9356;52.202;20.950;2023-04-25T05:33:10;12.60;99.90
18454;DHT22;9356;52.202;20.950;2023-04-25T05:34:14;12.50;99.90
18454;DHT22;9356;52.202;20.950;2023-04-25T05:35:29;12.50;99.90
18454;DHT22;9356;52.202;20.950;2023-04-25T05:36:33;12.40;99.90
18454;DHT22;9356;52.202;20.950;2023-04-25T05:37:37;12.40;99.90
18454;DHT22;9356;52.202;20.950;2023-04-25T05:38:45;12.40;99.90
18454;DHT22;9356;52.202;20.950;2023-04-25T05:40:09;12.40;99.90
18454;DHT22;9356;52.202;20.950;2023-04-25T05:41:46;12.50;99.90
18454;DHT22;9356;52.202;20.950;2023-04-25T05:43:14;12.50;99.90
18454;DHT22;9356;52.202;20.950;2023-04-25T05:44:45;12.40;99.90
18454;DHT22;9356;52.202;20.950;2023-04-25T05:46:15;12.50;99.90
18454;DHT22;9356;52.202;20.950;2023-04-25T05:47:58;12.50;99.90
18454;DHT22;9356;52.202;20.950;2023-04-25T05:49:32;12.50;99.90
18454;DHT22;9356;52.202;20.950;2023-04-25T05:50:54;12.60;99.90
18454;DHT22;9356;52.202;20.950;2023-04-25T05:52:13;12.50;99.90
18454;DHT22;9356;52.202;20.950;2023-04-25T05:53:22;12.60;99.90
18454;DHT22;9356;52.202;20.950;2023-04-25T05:54:32;12.50;99.90
18454;DHT22;9356;52.202;20.950;2023-04-25T05:55:35;12.50;99.90
18454;DHT22;9356;52.202;20.950;2023-04-25T05:56:53;10.60;99.90
18454;DHT22;9356;52.202;20.950;2023-04-25T05:58:01;15.30;99.90
18454;DHT22;9356;52.202;20.950;2023-04-25T05:59:03;12.60;99.90
18454;DHT22;9356;52.202;20.950;2023-04-25T06:00:12;12.70;99.90
18454;DHT22;9356;52.202;20.950;2023-04-25T06:01:15;12.70;99.90
18454;DHT22;9356;52.202;20.950;2023-04-25T06:02:20;12.70;99.90
18454;DHT22;9356;52.202;20.950;2023-04-25T06:03:27;12.70;99.90
18454;DHT22;9356;52.202;20.950;2023-04-25T06:04:33;12.80;99.90
18454;DHT22;9356;52.202;20.950;2023-04-25T06:05:37;12.80;99.90
18454;DHT22;9356;52.202;20.950;2023-04-25T06:06:41;12.80;99.90
18454;DHT22;9356;52.202;20.950;2023-04-25T06:07:44;12.90;99.90
18454;DHT22;9356;52.202;20.950;2023-04-25T06:08:50;12.80;99.90
18454;DHT22;9356;52.202;20.950;2023-04-25T06:09:53;12.80;99.90
18454;DHT22;9356;52.202;20.950;2023-04-25T06:10:57;12.80;99.90
18454;DHT22;9356;52.202;20.950;2023-04-25T06:12:00;12.80;99.90
18454;DHT22;9356;52.202;20.950;2023-04-25T06:13:05;12.80;99.90
18454;DHT22;9356;52.202;20.950;2023-04-25T06:14:14;12.90;99.90
18454;DHT22;9356;52.202;20.950;2023-04-25T06:15:23;13.80;99.90
18454;DHT22;9356;52.202;20.950;2023-04-25T06:16:30;12.90;99.90
18454;DHT22;9356;52.202;20.950;2023-04-25T06:17:34;12.90;99.90
18454;DHT22;9356;52.202;20.950;2023-04-25T06:18:38;12.90;99.90
18454;DHT22;9356;52.202;20.950;2023-04-25T06:19:42;13.00;99.90
18454;DHT22;9356;52.202;20.950;2023-04-25T06:20:45;13.40;99.90
18454;DHT22;9356;52.202;20.950;2023-04-25T06:21:49;13.70;99.90
18454;DHT22;9356;52.202;20.950;2023-04-25T06:22:52;13.90;99.90
18454;DHT22;9356;52.202;20.950;2023-04-25T06:24:03;14.00;99.90
18454;DHT22;9356;52.202;20.950;2023-04-25T06:25:07;13.80;99.90
18454;DHT22;9356;52.202;20.950;2023-04-25T06:26:10;14.20;99.90
18454;DHT22;9356;52.202;20.950;2023-04-25T06:27:19;14.40;99.90
18454;DHT22;9356;52.202;20.950;2023-04-25T06:28:23;14.70;99.90
18454;DHT22;9356;52.202;20.950;2023-04-25T06:29:26;14.80;99.90
18454;DHT22;9356;52.202;20.950;2023-04-25T06:30:31;14.70;99.90
18454;DHT22;9356;52.202;20.950;2023-04-25T06:31:41;14.90;99.90
18454;DHT22;9356;52.202;20.950;2023-04-25T06:32:46;15.00;99.90
18454;DHT22;9356;52.202;20.950;2023-04-25T06:33:52;15.10;99.90
18454;DHT22;9356;52.202;20.950;2023-04-25T06:34:59;15.00;99.90
18454;DHT22;9356;52.202;20.950;2023-04-25T06:36:03;15.10;99.90
18454;DHT22;9356;52.202;20.950;2023-04-25T06:37:10;15.10;99.90
18454;DHT22;9356;52.202;20.950;2023-04-25T06:38:16;15.20;99.90
18454;DHT22;9356;52.202;20.950;2023-04-25T06:39:23;15.10;99.90
18454;DHT22;9356;52.202;20.950;2023-04-25T06:40:27;15.10;99.90
18454;DHT22;9356;52.202;20.950;2023-04-25T06:41:34;15.10;99.90
18454;DHT22;9356;52.202;20.950;2023-04-25T06:42:41;12.80;99.40
18454;DHT22;9356;52.202;20.950;2023-04-25T06:44:02;14.80;99.90
18454;DHT22;9356;52.202;20.950;2023-04-25T06:45:27;14.60;99.90
18454;DHT22;9356;52.202;20.950;2023-04-25T06:46:32;14.40;99.90
18454;DHT22;9356;52.202;20.950;2023-04-25T06:47:35;14.00;99.90
18454;DHT22;9356;52.202;20.950;2023-04-25T06:48:40;13.90;99.90
18454;DHT22;9356;52.202;20.950;2023-04-25T06:49:45;13.80;99.90
18454;DHT22;9356;52.202;20.950;2023-04-25T06:50:49;10.70;99.90
18454;DHT22;9356;52.202;20.950;2023-04-25T06:51:53;13.20;99.90
18454;DHT22;9356;52.202;20.950;2023-04-25T06:52:57;13.20;99.90
18454;DHT22;9356;52.202;20.950;2023-04-25T06:54:01;13.10;99.90
18454;DHT22;9356;52.202;20.950;2023-04-25T06:55:15;13.20;99.90
18454;DHT22;9356;52.202;20.950;2023-04-25T06:56:33;13.10;99.90
18454;DHT22;9356;52.202;20.950;2023-04-25T06:57:43;13.20;99.90
18454;DHT22;9356;52.202;20.950;2023-04-25T06:59:11;13.10;99.90
18454;DHT22;9356;52.202;20.950;2023-04-25T07:00:16;13.20;99.90
18454;DHT22;9356;52.202;20.950;2023-04-25T07:01:23;11.20;99.90
18454;DHT22;9356;52.202;20.950;2023-04-25T07:02:27;13.20;99.90
18454;DHT22;9356;52.202;20.950;2023-04-25T07:03:31;13.20;99.90
18454;DHT22;9356;52.202;20.950;2023-04-25T07:04:40;13.20;99.90
18454;DHT22;9356;52.202;20.950;2023-04-25T07:05:45;13.20;99.90
18454;DHT22;9356;52.202;20.950;2023-04-25T07:06:49;9.90;99.90
18454;DHT22;9356;52.202;20.950;2023-04-25T07:07:58;13.20;99.90
18454;DHT22;9356;52.202;20.950;2023-04-25T07:09:03;13.10;99.90
18454;DHT22;9356;52.202;20.950;2023-04-25T07:10:08;13.10;99.90
18454;DHT22;9356;52.202;20.950;2023-04-25T07:11:12;13.30;99.90